createdAt,value
2024-05-09T00:04:38.716Z,3.95
2024-05-09T00:09:44.594Z,4.28
2024-05-09T00:14:53.204Z,4.00
2024-05-09T00:20:01.020Z,3.38
2024-05-09T00:25:08.841Z,3.80
2024-05-09T00:30:24.383Z,3.60
2024-05-09T00:35:37.758Z,3.35
2024-05-09T00:40:43.937Z,3.60
2024-05-09T00:45:53.746Z,3.60
2024-05-09T00:51:00.591Z,3.15
2024-05-09T00:56:08.108Z,3.47
2024-05-09T01:01:16.843Z,3.78
2024-05-09T01:06:23.274Z,2.85
2024-05-09T01:11:36.400Z,3.10
2024-05-09T01:16:45.136Z,2.92
2024-05-09T01:21:50.957Z,2.92
2024-05-09T01:26:59.363Z,3.30
2024-05-09T01:32:05.233Z,3.22
2024-05-09T01:37:11.124Z,3.08
2024-05-09T01:42:19.607Z,2.92
2024-05-09T01:47:25.532Z,3.15
2024-05-09T01:52:31.375Z,3.58
2024-05-09T01:57:39.739Z,3.30
2024-05-09T02:02:47.564Z,3.38
2024-05-09T02:07:53.544Z,3.40
2024-05-09T02:13:02.019Z,3.33
2024-05-09T02:18:09.105Z,3.58
2024-05-09T02:23:15.053Z,3.50
2024-05-09T02:28:23.495Z,3.08
2024-05-09T02:33:29.385Z,2.83
2024-05-09T02:38:35.373Z,2.20
2024-05-09T02:43:43.882Z,2.75
2024-05-09T02:48:49.885Z,2.15
2024-05-09T02:53:55.734Z,2.00
2024-05-09T02:59:04.193Z,2.35
2024-05-09T03:04:10.032Z,1.80
2024-05-09T03:09:15.998Z,1.85
2024-05-09T03:14:24.491Z,2.10
2024-05-09T03:19:30.444Z,1.90
2024-05-09T03:24:36.209Z,2.33
2024-05-09T03:29:49.651Z,1.92
2024-05-09T03:34:55.468Z,2.00
2024-05-09T03:40:02.690Z,2.10
2024-05-09T03:45:11.600Z,2.10
2024-05-09T03:50:22.880Z,1.80
2024-05-09T03:55:35.619Z,3.08
2024-05-09T04:00:44.804Z,1.70
2024-05-09T04:05:50.741Z,1.70
2024-05-09T04:10:57.293Z,1.60
2024-05-09T04:16:05.813Z,1.58
2024-05-09T04:21:11.633Z,1.77
2024-05-09T04:26:17.472Z,1.60
2024-05-09T04:31:25.890Z,1.73
2024-05-09T04:36:31.684Z,1.50
2024-05-09T04:41:37.457Z,1.48
2024-05-09T04:46:45.903Z,1.60
2024-05-09T04:51:51.698Z,1.30
2024-05-09T04:56:57.500Z,1.60
2024-05-09T05:02:05.973Z,1.27
2024-05-09T05:07:16.800Z,1.20
2024-05-09T05:12:38.422Z,1.92
2024-05-09T05:17:47.406Z,1.20
2024-05-09T05:22:53.360Z,1.45
2024-05-09T05:27:59.243Z,1.45
2024-05-09T05:33:08.951Z,1.10
2024-05-09T05:38:23.731Z,1.35
2024-05-09T05:43:32.182Z,1.50
2024-05-09T05:48:40.675Z,1.35
2024-05-09T05:53:46.824Z,1.10
2024-05-09T05:58:52.759Z,1.20
2024-05-09T06:04:01.302Z,1.20
2024-05-09T06:09:07.256Z,0.90
2024-05-09T06:14:13.143Z,1.20
2024-05-09T06:19:22.261Z,1.30
2024-05-09T06:24:28.263Z,1.20
2024-05-09T06:29:39.755Z,1.15
2024-05-09T06:34:49.504Z,1.17
2024-05-09T06:45:01.451Z,1.05
2024-05-09T06:50:19.628Z,1.05
2024-05-09T06:55:29.283Z,1.00
2024-05-09T07:00:39.410Z,1.00
2024-05-09T07:05:50.220Z,1.67
2024-05-09T07:10:56.189Z,0.90
2024-05-09T07:16:02.095Z,1.35
2024-05-09T07:21:11.716Z,1.10
2024-05-09T07:26:20.318Z,1.00
2024-05-09T07:31:28.192Z,1.00
2024-05-09T07:36:37.009Z,1.20
2024-05-09T07:41:42.791Z,1.15
2024-05-09T07:47:48.759Z,1.40
2024-05-09T07:53:29.992Z,1.10
2024-05-09T07:57:43.603Z,1.23
2024-05-09T08:02:54.422Z,1.17
2024-05-09T08:08:02.886Z,1.13
2024-05-09T08:13:08.846Z,1.42
2024-05-09T08:18:14.808Z,1.00
2024-05-09T08:23:23.897Z,1.10
2024-05-09T08:28:30.673Z,1.23
2024-05-09T08:33:36.936Z,1.17
2024-05-09T08:38:45.589Z,1.20
2024-05-09T08:43:51.400Z,1.20
2024-05-09T08:48:59.369Z,1.10
2024-05-09T08:54:07.962Z,1.23
2024-05-09T08:59:19.995Z,1.00
2024-05-09T09:04:27.730Z,1.00
2024-05-09T09:09:40.961Z,0.80
2024-05-09T09:14:46.816Z,0.80
2024-05-09T09:19:52.887Z,1.30
2024-05-09T09:25:04.005Z,1.10
2024-05-09T09:30:22.977Z,1.13
2024-05-09T09:35:37.122Z,1.10
2024-05-09T09:40:49.955Z,1.10
2024-05-09T09:45:56.108Z,0.93
2024-05-09T09:51:03.155Z,0.98
2024-05-09T09:56:13.764Z,0.95
2024-05-09T10:01:19.881Z,1.10
2024-05-09T10:06:27.345Z,0.77
2024-05-09T10:11:45.401Z,0.82
2024-05-09T10:16:55.021Z,1.15
2024-05-09T10:22:04.648Z,0.80
2024-05-09T10:27:13.198Z,1.23
2024-05-09T10:32:19.383Z,0.90
2024-05-09T10:37:25.607Z,1.08
2024-05-09T10:42:36.272Z,0.85
2024-05-09T10:47:42.797Z,0.90
2024-05-09T10:52:48.688Z,1.00
2024-05-09T10:57:57.174Z,0.60
2024-05-09T11:03:08.687Z,0.90
2024-05-09T11:08:15.453Z,0.90
2024-05-09T11:13:32.295Z,0.75
2024-05-09T11:18:39.291Z,0.80
2024-05-09T11:23:45.412Z,0.73
2024-05-09T11:28:54.917Z,0.70
2024-05-09T11:34:03.269Z,0.68
2024-05-09T11:39:09.271Z,0.80
2024-05-09T11:44:17.654Z,0.90
2024-05-09T11:49:26.791Z,0.90
2024-05-09T11:54:33.003Z,0.70
2024-05-09T11:59:41.497Z,0.73
2024-05-09T12:04:48.766Z,0.60
2024-05-09T12:09:54.804Z,0.70
2024-05-09T12:15:03.285Z,0.77
2024-05-09T12:20:20.975Z,1.13
2024-05-09T12:25:31.505Z,3.53
2024-05-09T12:30:41.589Z,1.00
2024-05-09T12:35:50.227Z,0.80
2024-05-09T12:41:01.683Z,1.27
2024-05-09T12:46:10.291Z,1.40
2024-05-09T12:51:16.504Z,3.05
2024-05-09T12:56:22.294Z,3.10
2024-05-09T13:01:30.895Z,1.20
2024-05-09T13:06:36.808Z,2.20
2024-05-09T13:11:43.054Z,0.90
2024-05-09T13:16:51.736Z,1.25
2024-05-09T13:21:57.551Z,0.88
2024-05-09T13:27:08.499Z,0.98
2024-05-09T13:32:16.957Z,1.10
2024-05-09T13:37:22.716Z,0.80
2024-05-09T13:42:28.706Z,1.30
2024-05-09T13:47:37.234Z,1.73
2024-05-09T13:52:43.049Z,0.73
2024-05-09T13:57:48.947Z,0.85
2024-05-09T14:02:57.658Z,0.90
2024-05-09T14:08:09.170Z,0.80
2024-05-09T14:13:15.153Z,1.10
2024-05-09T14:18:23.987Z,0.70
2024-05-09T14:23:29.861Z,0.70
2024-05-09T14:28:35.788Z,0.70
2024-05-09T14:33:44.389Z,0.70
2024-05-09T14:38:55.421Z,0.80
2024-05-09T14:44:01.221Z,0.68
2024-05-09T14:49:12.344Z,0.90
2024-05-09T14:54:23.320Z,0.80
2024-05-09T14:59:29.056Z,0.60
2024-05-09T15:04:37.662Z,0.82
2024-05-09T15:09:43.491Z,0.90
2024-05-09T15:14:49.312Z,0.63
2024-05-09T15:19:58.275Z,0.80
2024-05-09T15:25:04.203Z,0.93
2024-05-09T15:30:11.118Z,0.90
2024-05-09T15:35:21.446Z,0.82
2024-05-09T15:40:36.211Z,0.75
2024-05-09T15:45:45.696Z,0.65
2024-05-09T15:50:54.194Z,0.93
2024-05-09T15:56:00.119Z,1.07
2024-05-09T16:01:06.064Z,0.90
2024-05-09T16:06:14.839Z,0.70
2024-05-09T16:11:20.980Z,0.73
2024-05-09T16:16:27.111Z,0.80
2024-05-09T16:21:35.660Z,0.95
2024-05-09T16:26:41.501Z,1.00
2024-05-09T16:31:47.381Z,0.88
2024-05-09T16:36:55.828Z,0.80
2024-05-09T16:42:07.194Z,1.20
2024-05-09T16:47:13.237Z,1.10
2024-05-09T16:52:21.830Z,0.77
2024-05-09T16:57:27.679Z,1.10
2024-05-09T17:02:35.599Z,1.02
2024-05-09T17:07:44.254Z,1.10
2024-05-09T17:12:50.243Z,0.80
2024-05-09T17:17:56.306Z,1.33
2024-05-09T17:23:06.083Z,0.90
2024-05-09T17:33:18.822Z,0.98
2024-05-09T17:38:27.381Z,1.42
2024-05-09T17:43:33.236Z,1.15
2024-05-09T17:48:39.420Z,1.25
2024-05-09T17:53:47.997Z,1.20
2024-05-09T17:58:53.889Z,1.35
2024-05-09T18:03:59.805Z,1.35
2024-05-09T18:09:08.764Z,1.63
2024-05-09T18:14:14.613Z,1.50
2024-05-09T18:19:20.539Z,1.70
2024-05-09T18:24:32.472Z,1.30
2024-05-09T18:29:40.417Z,1.27
2024-05-09T18:34:46.392Z,1.35
2024-05-09T18:39:54.928Z,1.80
2024-05-09T18:45:01.365Z,1.27
2024-05-09T18:50:28.422Z,1.38
2024-05-09T18:55:44.248Z,1.80
2024-05-09T19:00:52.074Z,1.50
2024-05-09T19:05:59.998Z,1.30
2024-05-09T19:11:08.666Z,1.48
2024-05-09T19:16:14.584Z,1.55
2024-05-09T19:21:20.490Z,1.42
2024-05-09T19:26:29.008Z,1.25
2024-05-09T19:31:35.042Z,1.85
2024-05-09T19:36:40.906Z,1.70
2024-05-09T19:41:51.900Z,1.58
2024-05-09T19:52:03.540Z,1.52
2024-05-09T19:57:13.828Z,1.30
2024-05-09T20:02:20.077Z,1.43
2024-05-09T20:07:26.127Z,1.55
2024-05-09T20:12:34.734Z,1.67
2024-05-09T20:17:41.475Z,1.75
2024-05-09T20:22:47.561Z,1.77
2024-05-09T20:27:56.126Z,1.85
2024-05-09T20:33:03.042Z,1.90
2024-05-09T20:38:10.202Z,1.83
2024-05-09T20:43:18.718Z,1.52
2024-05-09T20:48:25.169Z,1.60
2024-05-09T20:53:31.053Z,1.70
2024-05-09T20:58:39.495Z,1.60
2024-05-09T21:03:45.406Z,1.50
2024-05-09T21:08:51.285Z,1.92
2024-05-09T21:13:59.748Z,1.92
2024-05-09T21:19:05.597Z,1.48
2024-05-09T21:24:11.485Z,2.17
2024-05-09T21:29:19.920Z,1.50
2024-05-09T21:34:25.788Z,1.63
2024-05-09T21:39:31.749Z,1.95
2024-05-09T21:44:40.199Z,1.55
2024-05-09T21:49:46.016Z,1.77
2024-05-09T21:54:51.926Z,1.92
2024-05-09T22:00:00.307Z,1.52
2024-05-09T22:05:06.303Z,2.10
2024-05-09T22:10:20.033Z,1.60
2024-05-09T22:15:37.370Z,2.10
2024-05-09T22:20:46.345Z,1.88
2024-05-09T22:25:52.435Z,1.58
2024-05-09T22:31:00.805Z,1.70
2024-05-09T22:36:06.840Z,2.00
2024-05-09T22:41:12.525Z,1.70
2024-05-09T22:46:20.995Z,1.77
2024-05-09T22:51:26.745Z,1.83
2024-05-09T22:56:32.726Z,1.70
2024-05-09T23:01:41.062Z,1.67
2024-05-09T23:06:46.843Z,2.03
2024-05-09T23:11:52.633Z,2.00
2024-05-09T23:17:01.122Z,1.90
2024-05-09T23:22:07.304Z,1.85
2024-05-09T23:27:12.993Z,2.15
2024-05-09T23:32:21.399Z,1.90
2024-05-09T23:37:27.971Z,1.80
2024-05-09T23:42:33.704Z,2.05
2024-05-09T23:47:42.339Z,2.00
2024-05-09T23:52:48.597Z,2.45
2024-05-09T23:57:54.393Z,2.08
